createdAt,value
2019-01-08T00:00:28.607Z,0.50
2019-01-08T00:02:59.385Z,0.50
2019-01-08T00:05:30.141Z,0.60
2019-01-08T00:08:00.906Z,0.50
2019-01-08T00:10:31.646Z,0.40
2019-01-08T00:13:02.414Z,0.30
2019-01-08T00:15:33.179Z,0.40
2019-01-08T00:18:03.967Z,0.50
2019-01-08T00:20:34.946Z,0.50
2019-01-08T00:23:05.715Z,0.30
2019-01-08T00:25:36.494Z,0.40
2019-01-08T00:28:07.466Z,0.80
2019-01-08T00:30:38.231Z,0.40
2019-01-08T00:33:09.008Z,0.45
2019-01-08T00:35:39.770Z,0.40
2019-01-08T00:38:10.513Z,0.57
2019-01-08T00:40:41.287Z,0.40
2019-01-08T00:43:12.018Z,0.65
2019-01-08T00:45:43.025Z,0.50
2019-01-08T00:48:13.762Z,0.55
2019-01-08T00:50:44.547Z,0.70
2019-01-08T00:53:15.286Z,0.70
2019-01-08T00:55:46.059Z,0.70
2019-01-08T00:58:17.030Z,0.70
2019-01-08T01:00:47.818Z,0.90
2019-01-08T01:03:18.553Z,1.10
2019-01-08T01:05:49.326Z,1.75
2019-01-08T01:08:20.079Z,2.70
2019-01-08T01:10:51.176Z,2.80
2019-01-08T01:13:21.936Z,3.27
2019-01-08T01:15:52.961Z,3.80
2019-01-08T01:18:23.949Z,4.70
2019-01-08T01:20:54.782Z,4.67
2019-01-08T01:23:25.595Z,5.60
2019-01-08T01:25:56.374Z,6.22
2019-01-08T01:28:27.449Z,6.12
2019-01-08T01:30:58.244Z,5.65
2019-01-08T01:33:29.005Z,6.40
2019-01-08T01:35:59.881Z,6.08
2019-01-08T01:38:30.642Z,5.47
2019-01-08T01:41:01.408Z,5.75
2019-01-08T01:43:32.217Z,6.25
2019-01-08T01:46:03.001Z,4.15
2019-01-08T01:48:33.792Z,4.25
2019-01-08T01:51:04.591Z,3.83
2019-01-08T01:53:35.384Z,3.77
2019-01-08T01:56:06.141Z,2.90
2019-01-08T01:58:37.183Z,2.90
2019-01-08T02:01:07.936Z,3.00
2019-01-08T02:03:38.959Z,2.55
2019-01-08T02:06:09.718Z,2.20
2019-01-08T02:08:40.495Z,3.50
2019-01-08T02:11:11.259Z,2.45
2019-01-08T02:13:42.292Z,2.65
2019-01-08T02:16:13.065Z,2.85
2019-01-08T02:18:44.089Z,3.20
2019-01-08T02:21:14.854Z,2.98
2019-01-08T02:23:45.673Z,2.80
2019-01-08T02:26:16.446Z,3.50
2019-01-08T02:28:47.226Z,3.70
2019-01-08T02:31:17.998Z,4.05
2019-01-08T02:33:48.809Z,4.47
2019-01-08T02:36:19.572Z,4.33
2019-01-08T02:38:50.364Z,4.58
2019-01-08T02:41:21.259Z,4.55
2019-01-08T02:43:52.197Z,4.62
2019-01-08T02:46:23.054Z,4.62
2019-01-08T02:48:53.850Z,4.42
2019-01-08T02:51:24.656Z,4.58
2019-01-08T02:53:55.450Z,4.20
2019-01-08T02:56:26.471Z,3.95
2019-01-08T02:58:57.258Z,3.72
2019-01-08T03:17:19.414Z,4.37
2019-01-08T03:20:07.990Z,4.03
2019-01-08T03:22:38.794Z,4.05
2019-01-08T03:25:09.570Z,3.40
2019-01-08T03:27:40.366Z,3.35
2019-01-08T03:34:05.982Z,3.17
2019-01-08T03:36:36.742Z,3.33
2019-01-08T03:39:07.550Z,2.98
2019-01-08T03:41:38.560Z,3.47
2019-01-08T03:44:08.770Z,3.33
2019-01-08T03:46:39.554Z,2.87
2019-01-08T03:49:10.337Z,4.25
2019-01-08T03:51:41.101Z,2.90
2019-01-08T03:54:11.883Z,2.60
2019-01-08T03:56:42.683Z,3.17
2019-01-08T03:59:12.878Z,2.72
2019-01-08T04:01:43.678Z,2.70
2019-01-08T04:04:14.450Z,2.65
2019-01-08T04:06:44.681Z,2.80
2019-01-08T04:47:12.789Z,3.17
2019-01-08T04:49:42.449Z,3.20
2019-01-08T04:52:12.901Z,2.93
2019-01-08T04:54:43.098Z,2.97
2019-01-08T04:57:13.298Z,3.00
2019-01-08T04:59:44.325Z,3.02
2019-01-08T05:02:14.763Z,2.73
2019-01-08T05:04:45.061Z,3.40
2019-01-08T05:07:15.258Z,2.70
2019-01-08T05:09:45.484Z,3.50
2019-01-08T05:12:16.253Z,2.85
2019-01-08T05:14:46.489Z,2.30
2019-01-08T05:17:17.253Z,3.02
2019-01-08T05:19:47.487Z,4.27
2019-01-08T05:22:17.669Z,3.40
2019-01-08T05:24:47.897Z,3.90
2019-01-08T05:27:18.319Z,3.03
2019-01-08T05:29:48.543Z,3.33
2019-01-08T05:32:18.726Z,2.83
2019-01-08T05:34:49.170Z,2.97
2019-01-08T05:37:19.365Z,2.50
2019-01-08T05:39:49.814Z,3.30
2019-01-08T05:42:20.034Z,3.43
2019-01-08T05:44:50.231Z,2.17
2019-01-08T05:47:20.451Z,3.30
2019-01-08T05:49:50.649Z,2.47
2019-01-08T05:52:21.108Z,3.20
2019-01-08T05:54:51.298Z,2.53
2019-01-08T05:57:21.738Z,3.00
2019-01-08T05:59:51.931Z,3.20
2019-01-08T06:02:22.388Z,2.98
2019-01-08T06:04:52.818Z,3.20
2019-01-08T06:07:23.065Z,4.17
2019-01-08T06:09:53.253Z,3.80
2019-01-08T06:12:23.473Z,4.30
2019-01-08T06:14:53.675Z,3.63
2019-01-08T06:17:23.881Z,2.90
2019-01-08T06:19:55.173Z,3.77
2019-01-08T06:22:25.526Z,3.17
2019-01-08T06:24:55.941Z,2.90
2019-01-08T06:27:26.402Z,3.73
2019-01-08T06:29:56.683Z,3.47
2019-01-08T06:32:26.872Z,3.83
2019-01-08T06:34:57.099Z,3.20
2019-01-08T06:37:27.879Z,4.17
2019-01-08T06:39:58.325Z,4.20
2019-01-08T06:42:28.589Z,3.30
2019-01-08T06:44:59.373Z,4.25
2019-01-08T06:47:30.321Z,3.43
2019-01-08T06:50:01.134Z,3.50
2019-01-08T06:52:31.335Z,3.20
2019-01-08T06:55:02.362Z,3.22
2019-01-08T06:57:33.130Z,4.00
2019-01-08T07:00:04.796Z,3.90
2019-01-08T07:02:35.557Z,3.08
2019-01-08T07:05:05.791Z,3.10
2019-01-08T07:07:36.001Z,2.90
2019-01-08T07:10:07.463Z,3.53
2019-01-08T07:12:37.661Z,3.53
2019-01-08T07:15:08.759Z,3.08
2019-01-08T07:17:39.187Z,3.50
2019-01-08T07:20:09.650Z,3.63
2019-01-08T07:22:39.837Z,3.35
2019-01-08T07:25:10.632Z,3.98
2019-01-08T07:27:40.856Z,3.67
2019-01-08T07:30:11.617Z,3.40
2019-01-08T07:32:42.421Z,3.45
2019-01-08T07:35:12.619Z,3.90
2019-01-08T07:37:43.417Z,3.58
2019-01-08T07:40:14.427Z,3.20
2019-01-08T07:42:45.233Z,4.22
2019-01-08T07:45:15.426Z,3.55
2019-01-08T07:47:46.223Z,4.30
2019-01-08T07:50:16.421Z,3.25
2019-01-08T07:52:47.472Z,3.30
2019-01-08T07:55:17.895Z,4.05
2019-01-08T07:57:48.912Z,3.42
2019-01-08T08:00:19.750Z,3.77
2019-01-08T08:02:50.554Z,4.10
2019-01-08T08:05:20.974Z,3.03
2019-01-08T08:07:51.777Z,4.67
2019-01-08T08:10:21.962Z,3.33
2019-01-08T08:12:52.191Z,3.77
2019-01-08T08:15:22.613Z,2.90
2019-01-08T08:17:53.663Z,3.58
2019-01-08T08:20:24.661Z,3.27
2019-01-08T08:22:54.884Z,3.98
2019-01-08T08:25:25.065Z,4.07
2019-01-08T08:27:55.291Z,4.07
2019-01-08T08:30:26.320Z,3.47
2019-01-08T08:32:56.606Z,4.60
2019-01-08T08:35:26.800Z,2.60
2019-01-08T08:37:57.015Z,2.40
2019-01-08T08:40:27.450Z,3.60
2019-01-08T08:42:57.662Z,3.37
2019-01-08T08:45:28.081Z,3.50
2019-01-08T08:47:58.281Z,3.50
2019-01-08T08:50:28.486Z,3.43
2019-01-08T08:52:58.701Z,3.90
2019-01-08T08:55:28.925Z,4.33
2019-01-08T08:57:59.118Z,4.00
2019-01-08T09:00:29.643Z,4.37
2019-01-08T09:02:59.837Z,3.70
2019-01-08T09:05:30.054Z,3.97
2019-01-08T09:08:00.266Z,4.40
2019-01-08T09:10:30.473Z,3.37
2019-01-08T09:13:00.901Z,3.67
2019-01-08T09:15:31.129Z,3.07
2019-01-08T09:18:01.330Z,2.80
2019-01-08T09:20:31.555Z,2.73
2019-01-08T09:23:01.746Z,2.83
2019-01-08T09:25:31.958Z,3.23
2019-01-08T09:28:02.151Z,3.40
2019-01-08T09:30:32.376Z,3.03
2019-01-08T09:33:02.570Z,3.30
2019-01-08T09:35:33.021Z,3.37
2019-01-08T09:38:03.317Z,3.13
2019-01-08T09:40:34.338Z,2.62
2019-01-08T09:43:04.522Z,2.50
2019-01-08T09:45:35.561Z,2.87
2019-01-08T09:48:06.323Z,2.27
2019-01-08T09:50:37.128Z,3.05
2019-01-08T09:53:07.322Z,4.17
2019-01-08T09:55:37.533Z,3.03
2019-01-08T09:58:07.729Z,2.80
2019-01-08T10:00:37.947Z,4.10
2019-01-08T10:03:08.166Z,2.77
2019-01-08T10:05:38.358Z,3.40
2019-01-08T10:08:08.587Z,2.87
2019-01-08T10:10:39.386Z,4.08
2019-01-08T10:13:10.159Z,3.83
2019-01-08T10:15:40.388Z,3.63
2019-01-08T10:18:11.149Z,3.02
2019-01-08T10:20:42.004Z,3.50
2019-01-08T10:23:12.430Z,3.22
2019-01-08T10:25:42.655Z,2.80
2019-01-08T10:28:12.873Z,3.00
2019-01-08T10:30:43.648Z,2.80
2019-01-08T10:33:14.123Z,2.47
2019-01-08T10:35:44.895Z,3.02
2019-01-08T10:38:15.731Z,2.90
2019-01-08T10:40:46.485Z,2.77
2019-01-08T10:43:17.287Z,2.80
2019-01-08T10:45:47.470Z,3.17
2019-01-08T10:48:17.694Z,2.57
2019-01-08T10:50:48.695Z,2.25
2019-01-08T10:53:19.495Z,2.35
2019-01-08T10:55:50.254Z,2.37
2019-01-08T10:58:21.052Z,3.45
2019-01-08T11:00:52.058Z,2.45
2019-01-08T11:03:22.290Z,2.77
2019-01-08T11:05:53.295Z,3.62
2019-01-08T11:08:24.095Z,2.50
2019-01-08T11:10:54.864Z,2.50
2019-01-08T11:13:25.663Z,3.02
2019-01-08T11:15:56.438Z,2.45
2019-01-08T11:18:27.554Z,2.70
2019-01-08T11:20:58.307Z,3.08
2019-01-08T11:23:29.334Z,3.02
2019-01-08T11:26:00.336Z,3.33
2019-01-08T11:28:31.142Z,3.35
2019-01-08T11:31:02.130Z,2.67
2019-01-08T11:33:33.166Z,2.70
2019-01-08T11:36:04.252Z,3.02
2019-01-08T11:38:35.037Z,2.92
2019-01-08T11:41:07.737Z,2.77
2019-01-08T11:43:38.523Z,2.95
2019-01-08T11:46:09.389Z,2.83
2019-01-08T11:48:40.145Z,2.47
2019-01-08T11:51:10.964Z,3.02
2019-01-08T11:53:41.950Z,2.77
2019-01-08T11:56:13.047Z,3.17
2019-01-08T11:58:43.809Z,3.08
2019-01-08T12:01:14.630Z,2.20
2019-01-08T12:03:45.391Z,3.52
2019-01-08T12:06:16.208Z,2.70
2019-01-08T12:08:46.980Z,2.50
2019-01-08T12:11:17.774Z,3.33
2019-01-08T12:13:48.782Z,2.70
2019-01-08T12:16:19.646Z,2.83
2019-01-08T12:18:50.660Z,2.35
2019-01-08T12:21:21.456Z,2.45
2019-01-08T12:23:52.213Z,3.08
2019-01-08T12:26:23.259Z,2.83
2019-01-08T12:28:54.262Z,2.33
2019-01-08T12:31:25.296Z,3.02
2019-01-08T12:33:56.332Z,2.52
2019-01-08T12:36:27.090Z,2.37
2019-01-08T12:38:58.138Z,2.55
2019-01-08T12:41:28.900Z,1.98
2019-01-08T12:43:59.918Z,2.02
2019-01-08T12:46:30.902Z,2.27
2019-01-08T12:49:01.899Z,1.57
2019-01-08T12:51:32.679Z,1.40
2019-01-08T12:54:03.459Z,1.60
2019-01-08T12:56:34.438Z,1.07
2019-01-08T12:59:05.525Z,1.60
2019-01-08T13:01:36.584Z,1.50
2019-01-08T13:04:07.592Z,1.55
2019-01-08T13:06:38.367Z,2.08
2019-01-08T13:09:09.158Z,2.05
2019-01-08T13:11:40.162Z,2.58
2019-01-08T13:14:11.195Z,2.52
2019-01-08T13:16:43.964Z,2.10
2019-01-08T13:19:14.436Z,2.12
2019-01-08T13:21:45.437Z,3.42
2019-01-08T13:24:16.458Z,3.30
2019-01-08T13:26:47.258Z,4.00
2019-01-08T13:29:18.069Z,2.98
2019-01-08T13:31:48.842Z,2.85
2019-01-08T13:34:19.646Z,2.80
2019-01-08T13:36:50.647Z,3.15
2019-01-08T13:39:21.677Z,3.08
2019-01-08T13:41:52.671Z,3.17
2019-01-08T13:44:23.698Z,3.70
2019-01-08T13:46:54.476Z,2.62
2019-01-08T13:49:25.518Z,2.80
2019-01-08T13:51:56.296Z,3.33
2019-01-08T13:54:27.318Z,2.87
2019-01-08T13:56:58.317Z,3.95
2019-01-08T13:59:29.118Z,3.52
2019-01-08T14:01:59.882Z,3.50
2019-01-08T14:04:30.694Z,3.80
2019-01-08T14:07:01.639Z,4.60
2019-01-08T14:09:31.865Z,4.67
2019-01-08T14:12:02.867Z,4.37
2019-01-08T14:14:33.104Z,3.97
2019-01-08T14:17:04.104Z,3.15
2019-01-08T14:19:34.576Z,1.50
2019-01-08T14:22:05.029Z,2.60
2019-01-08T14:24:35.282Z,3.07
2019-01-08T14:27:11.742Z,2.17
2019-01-08T14:29:37.711Z,2.47
2019-01-08T14:32:09.504Z,2.60
2019-01-08T14:34:39.954Z,2.83
2019-01-08T14:37:10.183Z,3.50
2019-01-08T14:39:40.379Z,2.93
2019-01-08T14:42:10.606Z,4.20
2019-01-08T14:44:41.044Z,3.00
2019-01-08T14:47:11.282Z,3.43
2019-01-08T14:49:41.666Z,3.10
2019-01-08T14:52:11.974Z,3.07
2019-01-08T14:54:42.559Z,3.60
2019-01-08T14:57:12.765Z,3.13
2019-01-08T14:59:42.995Z,2.80
2019-01-08T15:02:15.914Z,3.33
2019-01-08T15:04:48.910Z,3.33
2019-01-08T15:07:19.334Z,3.10
2019-01-08T15:09:49.813Z,2.77
2019-01-08T15:12:20.404Z,2.63
2019-01-08T15:14:50.643Z,2.23
2019-01-08T15:17:20.894Z,2.90
2019-01-08T15:19:51.338Z,2.13
2019-01-08T15:22:21.533Z,3.67
2019-01-08T15:24:51.752Z,3.37
2019-01-08T15:27:21.962Z,3.57
2019-01-08T15:29:52.398Z,2.63
2019-01-08T15:32:23.438Z,3.25
2019-01-08T15:34:53.697Z,2.75
2019-01-08T15:37:23.881Z,3.00
2019-01-08T15:39:54.101Z,3.63
2019-01-08T15:42:24.294Z,2.70
2019-01-08T15:44:54.737Z,2.73
2019-01-08T15:47:25.190Z,3.47
2019-01-08T15:49:55.382Z,3.77
2019-01-08T15:52:25.837Z,3.37
2019-01-08T15:54:56.271Z,3.33
2019-01-08T15:57:26.485Z,2.50
2019-01-08T15:59:56.680Z,3.13
2019-01-08T16:02:26.896Z,3.97
2019-01-08T16:04:57.086Z,2.77
2019-01-08T16:07:27.551Z,3.97
2019-01-08T16:09:57.752Z,3.53
2019-01-08T16:12:28.221Z,2.60
2019-01-08T16:14:58.406Z,3.23
2019-01-08T16:17:28.626Z,3.70
2019-01-08T16:19:58.822Z,2.73
2019-01-08T16:22:29.041Z,2.87
2019-01-08T16:24:59.234Z,4.67
2019-01-08T16:27:29.437Z,2.80
2019-01-08T16:30:01.802Z,3.00
2019-01-08T16:32:32.239Z,3.40
2019-01-08T16:35:02.691Z,3.33
2019-01-08T16:37:33.163Z,2.70
2019-01-08T16:40:03.963Z,2.63
2019-01-08T16:42:36.783Z,1.97
2019-01-08T16:45:06.990Z,3.70
2019-01-08T16:47:37.215Z,2.43
2019-01-08T16:50:07.458Z,2.73
2019-01-08T16:52:37.919Z,2.20
2019-01-08T16:55:08.418Z,2.70
2019-01-08T16:57:38.641Z,2.43
2019-01-08T17:00:10.965Z,2.07
2019-01-08T17:02:41.190Z,3.17
2019-01-08T17:05:11.378Z,2.63
2019-01-08T17:07:41.598Z,3.27
2019-01-08T17:10:11.790Z,2.93
2019-01-08T17:12:42.007Z,2.97
2019-01-08T17:15:12.430Z,2.47
2019-01-08T17:17:42.718Z,3.10
2019-01-08T17:20:12.933Z,3.60
2019-01-08T17:22:43.379Z,3.03
2019-01-08T17:25:13.911Z,3.70
2019-01-08T17:27:44.102Z,3.00
2019-01-08T17:30:14.334Z,2.53
2019-01-08T17:32:44.763Z,2.50
2019-01-08T17:35:14.982Z,3.03
2019-01-08T17:37:45.181Z,2.83
2019-01-08T17:40:15.460Z,2.50
2019-01-08T17:42:45.650Z,2.87
2019-01-08T17:45:15.871Z,3.13
2019-01-08T17:47:46.065Z,2.77
2019-01-08T17:50:16.295Z,3.37
2019-01-08T17:52:46.483Z,3.80
2019-01-08T17:55:16.701Z,2.83
2019-01-08T17:57:46.886Z,3.33
2019-01-08T18:00:17.181Z,2.23
2019-01-08T18:02:49.913Z,3.10
2019-01-08T18:05:20.133Z,2.80
2019-01-08T18:07:50.556Z,2.77
2019-01-08T18:10:20.785Z,3.03
2019-01-08T18:12:50.982Z,3.07
2019-01-08T18:15:21.198Z,2.60
2019-01-08T18:17:51.658Z,2.77
2019-01-08T18:20:21.854Z,2.63
2019-01-08T18:22:52.312Z,2.70
2019-01-08T18:25:23.125Z,3.40
2019-01-08T18:27:53.578Z,2.57
2019-01-08T18:30:23.768Z,2.83
2019-01-08T18:32:54.292Z,2.10
2019-01-08T18:35:24.469Z,2.70
2019-01-08T18:37:54.694Z,2.83
2019-01-08T18:40:24.886Z,3.23
2019-01-08T18:42:55.688Z,3.30
2019-01-08T18:45:26.458Z,2.55
2019-01-08T18:47:56.750Z,2.57
2019-01-08T18:50:26.933Z,2.73
2019-01-08T18:52:57.396Z,3.13
2019-01-08T18:55:27.586Z,2.90
2019-01-08T18:57:57.802Z,3.00
2019-01-08T19:00:28.010Z,2.30
2019-01-08T19:02:58.298Z,2.57
2019-01-08T19:05:28.488Z,2.30
2019-01-08T19:07:58.940Z,1.90
2019-01-08T19:10:29.433Z,2.50
2019-01-08T19:12:59.662Z,3.67
2019-01-08T19:15:29.852Z,3.63
2019-01-08T19:18:00.088Z,2.70
2019-01-08T19:20:30.265Z,2.10
2019-01-08T19:23:00.486Z,2.20
2019-01-08T19:25:30.910Z,2.80
2019-01-08T19:28:01.368Z,2.03
2019-01-08T19:30:31.555Z,2.37
2019-01-08T19:33:02.016Z,2.70
2019-01-08T19:35:32.189Z,2.50
2019-01-08T19:38:02.415Z,2.30
2019-01-08T19:40:32.851Z,3.30
2019-01-08T19:43:03.066Z,2.63
2019-01-08T19:45:33.286Z,2.30
2019-01-08T19:48:03.537Z,2.90
2019-01-08T19:50:33.754Z,2.70
2019-01-08T19:53:03.970Z,3.83
2019-01-08T19:55:34.194Z,2.40
2019-01-08T19:58:04.381Z,2.57
2019-01-08T20:00:34.593Z,2.73
2019-01-08T20:03:05.023Z,3.07
2019-01-08T20:05:35.237Z,2.90
2019-01-08T20:08:05.434Z,2.37
2019-01-08T20:10:35.899Z,3.13
2019-01-08T20:13:06.323Z,3.07
2019-01-08T20:15:36.633Z,2.67
2019-01-08T20:18:06.838Z,2.70
2019-01-08T20:20:37.047Z,2.73
2019-01-08T20:23:07.235Z,2.70
2019-01-08T20:25:37.446Z,2.70
2019-01-08T20:28:07.642Z,2.67
2019-01-08T20:30:37.866Z,2.90
2019-01-08T20:33:08.080Z,2.57
2019-01-08T20:35:38.298Z,2.80
2019-01-08T20:38:08.759Z,2.80
2019-01-08T20:40:38.951Z,2.97
2019-01-08T20:43:09.166Z,3.53
2019-01-08T20:45:39.367Z,3.30
2019-01-08T20:48:09.580Z,2.70
2019-01-08T20:50:39.770Z,3.87
2019-01-08T20:53:09.997Z,2.83
2019-01-08T20:55:40.181Z,2.20
2019-01-08T20:58:10.398Z,2.83
2019-01-08T21:00:40.787Z,3.00
2019-01-08T21:03:11.061Z,3.23
2019-01-08T21:05:41.502Z,2.43
2019-01-08T21:08:11.714Z,2.77
2019-01-08T21:10:41.933Z,2.90
2019-01-08T21:13:12.130Z,3.10
2019-01-08T21:15:42.354Z,2.80
2019-01-08T21:18:12.642Z,2.13
2019-01-08T21:20:42.878Z,2.63
2019-01-08T21:23:13.106Z,2.13
2019-01-08T21:25:43.434Z,2.40
2019-01-08T21:28:13.652Z,2.60
2019-01-08T21:30:44.486Z,2.87
2019-01-08T21:33:14.906Z,3.30
2019-01-08T21:35:45.367Z,2.30
2019-01-08T21:38:15.587Z,2.23
2019-01-08T21:40:46.022Z,1.93
2019-01-08T21:43:16.414Z,2.20
2019-01-08T21:45:46.612Z,2.43
2019-01-08T21:48:17.057Z,2.83
2019-01-08T21:50:47.287Z,2.77
2019-01-08T21:53:17.714Z,2.80
2019-01-08T21:55:48.167Z,3.20
2019-01-08T21:58:18.373Z,3.43
2019-01-08T22:00:48.570Z,2.50
2019-01-08T22:03:19.014Z,2.20
2019-01-08T22:05:49.583Z,2.50
2019-01-08T22:08:19.795Z,2.63
2019-01-08T22:10:49.983Z,3.30
2019-01-08T22:13:20.218Z,2.57
2019-01-08T22:15:50.400Z,2.90
2019-01-08T22:18:20.868Z,2.70
2019-01-08T22:20:51.062Z,2.40
2019-01-08T22:23:21.284Z,2.50
2019-01-08T22:25:51.470Z,2.83
2019-01-08T22:28:21.946Z,2.80
2019-01-08T22:30:52.130Z,3.40
2019-01-08T22:33:22.350Z,2.50
2019-01-08T22:35:52.939Z,3.67
2019-01-08T22:38:23.166Z,3.10
2019-01-08T22:40:53.386Z,4.40
2019-01-08T22:43:23.741Z,4.10
2019-01-08T22:45:53.970Z,3.63
2019-01-08T22:48:24.166Z,3.47
2019-01-08T22:50:54.622Z,3.17
2019-01-08T22:53:24.818Z,3.50
2019-01-08T22:55:55.257Z,2.73
2019-01-08T22:58:25.689Z,3.27
2019-01-08T23:01:03.367Z,2.77
2019-01-08T23:03:33.549Z,2.93
2019-01-08T23:06:03.922Z,3.07
2019-01-08T23:08:34.349Z,2.73
2019-01-08T23:11:04.712Z,4.23
2019-01-08T23:13:35.680Z,2.70
2019-01-08T23:16:05.883Z,3.13
2019-01-08T23:18:36.122Z,2.90
2019-01-08T23:21:17.980Z,3.17
2019-01-08T23:23:55.687Z,3.60
2019-01-08T23:26:32.648Z,2.43
2019-01-08T23:29:07.063Z,2.70
2019-01-08T23:31:46.397Z,3.33
2019-01-08T23:34:18.919Z,2.23
2019-01-08T23:36:52.643Z,2.67
2019-01-08T23:39:26.211Z,2.53
2019-01-08T23:42:09.433Z,2.80
2019-01-08T23:44:42.183Z,2.73
2019-01-08T23:47:19.052Z,2.40
2019-01-08T23:49:52.615Z,1.93
2019-01-08T23:52:30.531Z,3.07
2019-01-08T23:55:07.005Z,3.03
2019-01-08T23:57:45.339Z,2.43
